createdAt,value
2022-10-21T00:00:52.018Z,75.53
2022-10-21T00:03:19.984Z,75.25
2022-10-21T00:05:47.945Z,75.78
2022-10-21T00:08:15.307Z,75.89
2022-10-21T00:10:42.334Z,75.69
2022-10-21T00:13:09.064Z,75.92
2022-10-21T00:15:35.611Z,76.51
2022-10-21T00:18:02.122Z,76.73
2022-10-21T00:20:28.611Z,76.75
2022-10-21T00:22:55.067Z,76.72
2022-10-21T00:25:21.549Z,76.78
2022-10-21T00:27:48.051Z,76.77
2022-10-21T00:30:15.570Z,76.73
2022-10-21T00:32:42.085Z,77.09
2022-10-21T00:35:08.658Z,76.58
2022-10-21T00:37:35.300Z,76.77
2022-10-21T00:40:01.842Z,76.55
2022-10-21T00:42:40.992Z,76.41
2022-10-21T00:45:20.503Z,76.96
2022-10-21T00:47:59.586Z,78.40
2022-10-21T00:50:51.578Z,77.83
2022-10-21T00:53:18.703Z,77.84
2022-10-21T00:55:57.891Z,77.48
2022-10-21T00:58:30.316Z,77.50
2022-10-21T01:01:00.825Z,77.43
2022-10-21T01:03:29.723Z,77.23
2022-10-21T01:06:01.255Z,77.31
2022-10-21T01:08:29.554Z,77.29
2022-10-21T01:10:58.451Z,77.15
2022-10-21T01:13:27.717Z,77.02
2022-10-21T01:16:32.031Z,77.14
2022-10-21T01:19:52.739Z,77.38
2022-10-21T01:23:05.506Z,77.62
2022-10-21T01:26:46.901Z,77.77
2022-10-21T01:30:01.045Z,77.81
2022-10-21T01:33:11.995Z,77.49
2022-10-21T01:35:59.902Z,77.18
2022-10-21T01:38:43.887Z,76.94
2022-10-21T01:41:22.406Z,77.57
2022-10-21T01:44:29.338Z,77.32
2022-10-21T01:47:17.749Z,77.28
2022-10-21T01:49:52.735Z,77.63
2022-10-21T01:52:20.028Z,77.50
2022-10-21T01:55:06.448Z,76.88
2022-10-21T01:57:41.188Z,77.38
2022-10-21T02:00:09.528Z,77.82
2022-10-21T02:02:42.818Z,77.71
2022-10-21T02:05:29.017Z,77.55
2022-10-21T02:07:56.057Z,77.87
2022-10-21T02:10:27.353Z,76.89
2022-10-21T02:13:02.318Z,76.52
2022-10-21T02:15:33.276Z,76.99
2022-10-21T02:18:19.063Z,76.65
2022-10-21T02:20:45.794Z,76.23
2022-10-21T02:23:19.242Z,76.44
2022-10-21T02:25:50.762Z,76.37
2022-10-21T02:28:19.978Z,76.59
2022-10-21T02:31:10.344Z,76.63
2022-10-21T02:34:05.683Z,76.19
2022-10-21T02:36:49.481Z,75.84
2022-10-21T02:39:43.130Z,76.03
2022-10-21T02:42:16.699Z,76.04
2022-10-21T02:44:43.150Z,75.63
2022-10-21T02:49:40.991Z,75.19
2022-10-21T02:52:07.437Z,75.67
2022-10-21T02:54:33.856Z,75.66
2022-10-21T02:57:00.290Z,75.64
2022-10-21T02:59:26.794Z,75.65
2022-10-21T03:01:53.344Z,75.44
2022-10-21T03:04:19.872Z,75.48
2022-10-21T03:06:46.307Z,75.10
2022-10-21T03:09:12.814Z,75.23
2022-10-21T03:11:39.243Z,75.08
2022-10-21T03:14:05.705Z,75.53
2022-10-21T03:16:32.158Z,75.15
2022-10-21T03:18:58.587Z,75.16
2022-10-21T03:21:25.154Z,75.44
2022-10-21T03:23:51.607Z,75.33
2022-10-21T03:26:18.051Z,75.11
2022-10-21T03:28:44.473Z,74.98
2022-10-21T03:31:10.899Z,75.02
2022-10-21T03:33:37.380Z,75.00
2022-10-21T03:36:04.653Z,75.69
2022-10-21T03:38:31.099Z,75.11
2022-10-21T03:40:57.571Z,75.20
2022-10-21T03:43:24.013Z,75.28
2022-10-21T03:45:50.441Z,75.86
2022-10-21T03:48:16.906Z,75.46
2022-10-21T03:50:43.322Z,75.71
2022-10-21T03:53:18.667Z,75.71
2022-10-21T03:55:56.533Z,75.83
2022-10-21T03:58:25.112Z,75.86
2022-10-21T04:00:53.254Z,75.79
2022-10-21T04:03:19.788Z,75.85
2022-10-21T04:05:46.367Z,76.42
2022-10-21T04:08:12.903Z,76.73
2022-10-21T04:10:39.414Z,77.50
2022-10-21T04:13:05.874Z,76.92
2022-10-21T04:15:32.305Z,76.43
2022-10-21T04:17:58.723Z,76.23
2022-10-21T04:20:25.150Z,75.70
2022-10-21T04:22:51.562Z,75.68
2022-10-21T04:25:18.068Z,75.74
2022-10-21T04:27:44.493Z,75.76
2022-10-21T04:30:11.202Z,75.88
2022-10-21T04:32:37.920Z,76.32
2022-10-21T04:35:05.240Z,75.62
2022-10-21T04:37:31.871Z,75.58
2022-10-21T04:39:58.476Z,75.81
2022-10-21T04:42:24.965Z,75.61
2022-10-21T04:44:51.522Z,75.58
2022-10-21T04:47:18.026Z,75.06
2022-10-21T04:49:44.451Z,75.27
2022-10-21T04:52:10.959Z,75.13
2022-10-21T04:54:37.412Z,75.35
2022-10-21T04:57:03.929Z,75.06
2022-10-21T04:59:30.380Z,75.36
2022-10-21T05:01:56.829Z,74.96
2022-10-21T05:04:23.387Z,75.09
2022-10-21T05:06:49.869Z,75.97
2022-10-21T05:09:16.449Z,75.61
2022-10-21T05:11:42.987Z,75.33
2022-10-21T05:14:09.538Z,76.03
2022-10-21T05:16:35.998Z,76.14
2022-10-21T05:19:02.504Z,75.84
2022-10-21T05:21:28.943Z,75.86
2022-10-21T05:23:55.458Z,75.55
2022-10-21T05:26:22.115Z,75.46
2022-10-21T05:28:48.557Z,75.51
2022-10-21T05:31:15.034Z,75.67
2022-10-21T05:33:41.510Z,75.91
2022-10-21T05:36:08.599Z,75.90
2022-10-21T05:38:35.604Z,75.75
2022-10-21T05:41:02.495Z,75.92
2022-10-21T05:43:29.135Z,75.86
2022-10-21T05:45:56.136Z,75.73
2022-10-21T05:48:23.771Z,75.63
2022-10-21T05:50:53.620Z,75.20
2022-10-21T05:53:24.327Z,75.18
2022-10-21T05:56:04.900Z,75.04
2022-10-21T05:58:33.217Z,75.03
2022-10-21T06:01:01.279Z,75.10
2022-10-21T06:03:31.787Z,74.68
2022-10-21T06:06:00.774Z,74.31
2022-10-21T06:08:30.445Z,74.61
2022-10-21T06:11:31.504Z,74.44
2022-10-21T06:13:58.222Z,74.88
2022-10-21T06:16:24.847Z,74.67
2022-10-21T06:18:51.351Z,74.63
2022-10-21T06:21:17.910Z,74.22
2022-10-21T06:23:44.407Z,74.46
2022-10-21T06:26:14.170Z,74.56
2022-10-21T06:28:43.157Z,74.43
2022-10-21T06:31:15.654Z,75.18
2022-10-21T06:33:42.475Z,75.36
2022-10-21T06:36:09.011Z,76.03
2022-10-21T06:38:36.909Z,75.90
2022-10-21T06:41:10.715Z,75.47
2022-10-21T06:43:40.088Z,75.19
2022-10-21T06:46:11.350Z,74.99
2022-10-21T06:48:38.619Z,75.31
2022-10-21T06:51:21.647Z,75.22
2022-10-21T06:53:54.974Z,75.23
2022-10-21T06:56:23.535Z,75.43
2022-10-21T06:58:51.047Z,75.12
2022-10-21T07:01:41.044Z,74.97
2022-10-21T07:04:09.865Z,75.42
2022-10-21T07:06:36.962Z,75.45
2022-10-21T07:09:07.716Z,74.97
2022-10-21T07:11:34.279Z,74.71
2022-10-21T07:14:01.784Z,74.76
2022-10-21T07:16:32.535Z,75.01
2022-10-21T07:18:59.350Z,75.33
2022-10-21T07:21:29.396Z,74.68
2022-10-21T07:23:59.322Z,74.83
2022-10-21T07:26:29.483Z,75.13
2022-10-21T07:28:58.766Z,74.98
2022-10-21T07:31:25.303Z,74.95
2022-10-21T07:33:53.161Z,75.40
2022-10-21T07:36:27.377Z,74.76
2022-10-21T07:38:59.049Z,75.11
2022-10-21T07:41:30.420Z,75.41
2022-10-21T07:43:57.651Z,75.50
2022-10-21T07:46:24.451Z,75.09
2022-10-21T07:48:52.183Z,75.28
2022-10-21T07:51:28.395Z,75.19
2022-10-21T07:53:59.483Z,74.94
2022-10-21T07:56:37.196Z,74.93
2022-10-21T07:59:06.770Z,75.09
2022-10-21T08:01:36.214Z,75.24
2022-10-21T08:04:03.230Z,75.35
2022-10-21T08:06:29.967Z,75.19
2022-10-21T08:08:57.388Z,75.32
2022-10-21T08:11:27.687Z,75.02
2022-10-21T08:13:55.892Z,75.44
2022-10-21T08:16:23.772Z,75.40
2022-10-21T08:18:51.402Z,75.50
2022-10-21T08:21:17.986Z,75.26
2022-10-21T08:23:45.358Z,75.04
2022-10-21T08:26:15.896Z,75.11
2022-10-21T08:28:43.244Z,75.32
2022-10-21T08:31:17.283Z,75.32
2022-10-21T08:33:44.380Z,75.06
2022-10-21T08:36:16.320Z,74.87
2022-10-21T08:38:43.589Z,74.97
2022-10-21T08:41:30.208Z,74.97
2022-10-21T08:44:06.461Z,75.17
2022-10-21T08:46:47.391Z,74.80
2022-10-21T08:49:55.884Z,74.77
2022-10-21T08:52:34.714Z,75.13
2022-10-21T08:55:06.365Z,75.31
2022-10-21T08:57:35.512Z,75.03
2022-10-21T09:00:21.763Z,75.17
2022-10-21T09:03:09.788Z,75.56
2022-10-21T09:05:49.854Z,75.23
2022-10-21T09:08:52.536Z,75.30
2022-10-21T09:11:46.839Z,75.53
2022-10-21T09:17:57.278Z,75.32
2022-10-21T09:21:05.675Z,75.74
2022-10-21T09:24:01.464Z,75.48
2022-10-21T09:26:44.691Z,75.68
2022-10-21T09:29:37.481Z,75.49
2022-10-21T09:32:22.952Z,75.73
2022-10-21T09:35:15.570Z,76.02
2022-10-21T09:38:16.350Z,76.28
2022-10-21T09:40:45.387Z,76.65
2022-10-21T09:43:26.472Z,76.81
2022-10-21T09:45:53.569Z,76.59
2022-10-21T09:48:19.982Z,76.19
2022-10-21T09:50:53.381Z,76.09
2022-10-21T09:53:54.431Z,76.37
2022-10-21T09:56:27.761Z,76.20
2022-10-21T09:59:16.335Z,76.09
2022-10-21T10:01:44.647Z,76.12
2022-10-21T10:04:22.519Z,76.19
2022-10-21T10:06:49.769Z,75.98
2022-10-21T10:09:27.331Z,75.89
2022-10-21T10:11:57.487Z,76.07
2022-10-21T10:14:30.062Z,76.04
2022-10-21T10:17:18.207Z,75.91
2022-10-21T10:20:04.650Z,76.14
2022-10-21T10:22:32.898Z,76.40
2022-10-21T10:25:28.354Z,76.00
2022-10-21T10:28:03.441Z,76.04
2022-10-21T10:30:50.602Z,75.99
2022-10-21T10:33:34.552Z,76.03
2022-10-21T10:36:09.455Z,75.93
2022-10-21T10:38:52.390Z,76.24
2022-10-21T10:41:19.033Z,76.01
2022-10-21T10:43:53.389Z,75.94
2022-10-21T10:46:30.388Z,75.79
2022-10-21T10:49:06.676Z,76.05
2022-10-21T10:51:36.082Z,76.09
2022-10-21T10:54:26.206Z,75.74
2022-10-21T10:56:59.347Z,75.93
2022-10-21T10:59:45.535Z,75.64
2022-10-21T11:02:12.882Z,76.13
2022-10-21T11:05:09.368Z,75.90
2022-10-21T11:07:52.787Z,75.74
2022-10-21T11:10:45.743Z,75.77
2022-10-21T11:13:22.703Z,75.63
2022-10-21T11:16:26.102Z,75.26
2022-10-21T11:19:21.976Z,75.34
2022-10-21T11:22:08.636Z,75.78
2022-10-21T11:24:59.632Z,75.63
2022-10-21T11:27:49.891Z,75.58
2022-10-21T11:30:20.739Z,75.58
2022-10-21T11:33:30.791Z,75.41
2022-10-21T11:36:12.830Z,75.63
2022-10-21T11:38:58.647Z,75.67
2022-10-21T11:41:44.291Z,75.55
2022-10-21T11:44:29.249Z,75.60
2022-10-21T11:47:41.047Z,75.82
2022-10-21T11:50:35.667Z,76.10
2022-10-21T11:53:33.702Z,75.79
2022-10-21T11:56:49.573Z,75.79
2022-10-21T11:59:30.785Z,76.27
2022-10-21T12:02:09.728Z,75.86
2022-10-21T12:05:01.150Z,75.37
2022-10-21T12:07:54.126Z,75.64
2022-10-21T12:10:37.434Z,75.14
2022-10-21T12:13:20.095Z,75.25
2022-10-21T12:15:54.236Z,74.96
2022-10-21T12:18:26.190Z,74.60
2022-10-21T12:20:55.774Z,74.26
2022-10-21T12:23:29.640Z,74.18
2022-10-21T12:26:24.904Z,74.14
2022-10-21T12:28:55.678Z,74.18
2022-10-21T12:31:56.020Z,73.85
2022-10-21T12:34:24.134Z,74.03
2022-10-21T12:36:54.034Z,73.74
2022-10-21T12:39:32.410Z,73.37
2022-10-21T12:42:17.914Z,73.29
2022-10-21T12:44:50.946Z,73.80
2022-10-21T12:47:39.808Z,74.02
2022-10-21T12:50:31.028Z,73.78
2022-10-21T12:53:27.922Z,73.66
2022-10-21T12:56:00.010Z,74.05
2022-10-21T12:58:37.710Z,73.65
2022-10-21T13:01:07.708Z,73.80
2022-10-21T13:03:46.223Z,73.44
2022-10-21T13:06:13.377Z,73.75
2022-10-21T13:08:55.639Z,73.62
2022-10-21T13:11:38.750Z,73.60
2022-10-21T13:14:17.176Z,73.39
2022-10-21T13:16:43.800Z,73.27
2022-10-21T13:19:15.877Z,72.85
2022-10-21T13:21:48.825Z,72.54
2022-10-21T13:24:42.190Z,72.53
2022-10-21T13:27:38.520Z,71.85
2022-10-21T13:30:07.538Z,73.35
2022-10-21T13:32:37.671Z,73.35
2022-10-21T13:35:19.158Z,73.23
2022-10-21T13:38:17.081Z,73.07
2022-10-21T13:40:52.221Z,72.94
2022-10-21T13:43:28.647Z,72.81
2022-10-21T13:46:24.670Z,72.79
2022-10-21T13:48:51.107Z,73.49
2022-10-21T13:51:26.367Z,73.30
2022-10-21T13:53:57.564Z,73.24
2022-10-21T13:56:32.402Z,73.22
2022-10-21T13:58:59.981Z,73.55
2022-10-21T14:01:48.021Z,72.99
2022-10-21T14:04:25.089Z,73.19
2022-10-21T14:07:00.709Z,73.56
2022-10-21T14:09:33.610Z,73.14
2022-10-21T14:12:08.037Z,72.81
2022-10-21T14:14:39.327Z,72.83
2022-10-21T14:17:15.607Z,72.67
2022-10-21T14:19:47.917Z,73.62
2022-10-21T14:22:23.385Z,73.96
2022-10-21T14:24:56.679Z,74.04
2022-10-21T14:27:31.118Z,73.74
2022-10-21T14:30:01.545Z,73.63
2022-10-21T14:32:28.806Z,73.88
2022-10-21T14:35:10.599Z,73.62
2022-10-21T14:37:54.586Z,73.72
2022-10-21T14:40:41.383Z,73.79
2022-10-21T14:43:18.020Z,75.12
2022-10-21T14:45:48.494Z,74.69
2022-10-21T14:48:36.360Z,74.38
2022-10-21T14:51:16.566Z,73.84
2022-10-21T14:53:55.609Z,73.91
2022-10-21T14:56:33.764Z,73.65
2022-10-21T14:59:15.650Z,73.93
2022-10-21T15:01:44.002Z,74.33
2022-10-21T15:04:52.879Z,74.23
2022-10-21T15:07:31.727Z,74.55
2022-10-21T15:10:04.350Z,74.36
2022-10-21T15:12:52.692Z,74.11
2022-10-21T15:15:40.997Z,74.18
2022-10-21T15:18:22.571Z,74.32
2022-10-21T15:21:11.087Z,74.32
2022-10-21T15:23:51.947Z,73.88
2022-10-21T15:26:29.479Z,73.98
2022-10-21T15:28:56.861Z,73.80
2022-10-21T15:31:27.662Z,73.72
2022-10-21T15:33:57.047Z,73.61
2022-10-21T15:36:24.593Z,73.75
2022-10-21T15:38:51.411Z,74.06
2022-10-21T15:41:25.265Z,73.91
2022-10-21T15:44:02.451Z,73.85
2022-10-21T15:46:33.047Z,74.27
2022-10-21T15:49:15.591Z,74.31
2022-10-21T15:51:42.090Z,74.35
2022-10-21T15:54:08.529Z,74.23
2022-10-21T15:56:35.383Z,74.09
2022-10-21T15:59:02.469Z,73.99
2022-10-21T16:01:28.984Z,74.03
2022-10-21T16:03:55.546Z,73.88
2022-10-21T16:06:22.461Z,73.75
2022-10-21T16:08:49.555Z,73.82
2022-10-21T16:11:29.638Z,73.60
2022-10-21T16:14:07.628Z,73.86
2022-10-21T16:16:34.243Z,73.68
2022-10-21T16:19:00.702Z,73.80
2022-10-21T16:21:27.162Z,74.00
2022-10-21T16:23:55.669Z,74.18
2022-10-21T16:26:26.947Z,74.29
2022-10-21T16:28:57.146Z,74.35
2022-10-21T16:31:28.355Z,74.39
2022-10-21T16:33:54.858Z,74.68
2022-10-21T16:36:29.684Z,74.58
2022-10-21T16:38:56.353Z,74.77
2022-10-21T16:41:28.104Z,74.92
2022-10-21T16:43:58.523Z,74.80
2022-10-21T16:46:37.172Z,74.67
2022-10-21T16:49:12.893Z,74.79
2022-10-21T16:51:45.810Z,74.72
2022-10-21T16:54:13.176Z,74.91
2022-10-21T16:56:39.693Z,75.15
2022-10-21T16:59:07.024Z,74.81
2022-10-21T17:01:34.319Z,74.80
2022-10-21T17:04:00.887Z,75.02
2022-10-21T17:06:27.675Z,74.74
2022-10-21T17:08:55.803Z,74.49
2022-10-21T17:11:29.382Z,74.99
2022-10-21T17:13:55.808Z,75.29
2022-10-21T17:16:22.254Z,75.19
2022-10-21T17:18:48.870Z,74.87
2022-10-21T17:21:23.486Z,74.61
2022-10-21T17:23:51.654Z,74.96
2022-10-21T17:26:18.844Z,74.73
2022-10-21T17:28:46.172Z,74.88
2022-10-21T17:31:21.906Z,74.62
2022-10-21T17:33:49.699Z,74.47
2022-10-21T17:36:17.671Z,74.25
2022-10-21T17:38:44.734Z,74.19
2022-10-21T17:41:14.547Z,74.68
2022-10-21T17:43:41.349Z,74.79
2022-10-21T17:46:14.620Z,74.62
2022-10-21T17:48:41.086Z,74.43
2022-10-21T17:51:07.701Z,74.57
2022-10-21T17:53:34.222Z,74.42
2022-10-21T17:56:04.782Z,74.76
2022-10-21T17:58:31.917Z,74.54
2022-10-21T18:00:59.103Z,74.44
2022-10-21T18:03:28.500Z,74.63
2022-10-21T18:05:56.380Z,75.11
2022-10-21T18:08:23.772Z,75.46
2022-10-21T18:10:56.503Z,75.47
2022-10-21T18:13:26.453Z,75.35
2022-10-21T18:15:54.198Z,75.45
2022-10-21T18:18:23.150Z,75.40
2022-10-21T18:20:49.686Z,75.57
2022-10-21T18:23:16.266Z,75.74
2022-10-21T18:25:43.260Z,75.61
2022-10-21T18:28:10.443Z,75.38
2022-10-21T18:30:42.761Z,75.09
2022-10-21T18:33:10.075Z,75.27
2022-10-21T18:35:36.871Z,75.18
2022-10-21T18:38:03.996Z,75.38
2022-10-21T18:40:30.601Z,75.43
2022-10-21T18:42:57.168Z,75.13
2022-10-21T18:45:23.802Z,74.99
2022-10-21T18:47:51.529Z,74.52
2022-10-21T18:50:18.181Z,74.69
2022-10-21T18:52:44.726Z,74.68
2022-10-21T18:55:11.193Z,74.98
2022-10-21T18:57:38.086Z,74.70
2022-10-21T19:00:06.458Z,75.12
2022-10-21T19:02:33.451Z,75.36
2022-10-21T19:05:02.031Z,75.54
2022-10-21T19:07:29.259Z,75.54
2022-10-21T19:09:56.421Z,75.76
2022-10-21T19:12:23.682Z,75.87
2022-10-21T19:14:50.862Z,75.55
2022-10-21T19:17:17.598Z,75.11
2022-10-21T19:19:44.042Z,75.04
2022-10-21T19:22:10.571Z,75.03
2022-10-21T19:24:37.010Z,75.22
2022-10-21T19:27:04.137Z,74.58
2022-10-21T19:29:30.732Z,74.47
2022-10-21T19:31:57.338Z,74.04
2022-10-21T19:34:27.544Z,74.29
2022-10-21T19:36:54.452Z,74.69
2022-10-21T19:39:21.018Z,74.50
2022-10-21T19:41:48.290Z,74.97
2022-10-21T19:44:14.863Z,75.16
2022-10-21T19:46:41.457Z,74.55
2022-10-21T19:49:09.575Z,74.42
2022-10-21T19:51:37.559Z,74.29
2022-10-21T19:54:06.475Z,74.80
2022-10-21T19:56:34.617Z,74.86
2022-10-21T19:59:02.638Z,74.47
2022-10-21T20:01:29.989Z,74.48
2022-10-21T20:03:56.602Z,75.07
2022-10-21T20:06:27.430Z,75.48
2022-10-21T20:08:57.421Z,75.82
2022-10-21T20:11:25.071Z,76.56
2022-10-21T20:13:52.138Z,77.00
2022-10-21T20:16:26.642Z,76.71
2022-10-21T20:18:54.825Z,76.06
2022-10-21T20:21:22.819Z,75.65
2022-10-21T20:23:50.183Z,75.32
2022-10-21T20:26:17.446Z,74.81
2022-10-21T20:28:44.195Z,74.70
2022-10-21T20:31:14.591Z,74.69
2022-10-21T20:33:47.790Z,74.80
2022-10-21T20:36:24.702Z,75.06
2022-10-21T20:38:53.814Z,75.35
2022-10-21T20:41:25.813Z,75.60
2022-10-21T20:43:53.935Z,75.83
2022-10-21T20:46:23.941Z,75.89
2022-10-21T20:48:52.666Z,75.36
2022-10-21T20:51:26.118Z,74.83
2022-10-21T20:54:06.580Z,74.28
2022-10-21T20:56:39.238Z,74.87
2022-10-21T20:59:08.126Z,75.03
2022-10-21T21:01:41.858Z,74.66
2022-10-21T21:04:12.507Z,74.45
2022-10-21T21:06:43.498Z,74.30
2022-10-21T21:11:57.394Z,75.02
2022-10-21T21:14:24.223Z,74.42
2022-10-21T21:16:50.672Z,74.45
2022-10-21T21:19:19.262Z,74.82
2022-10-21T21:21:45.691Z,75.15
2022-10-21T21:24:12.529Z,75.51
2022-10-21T21:26:40.023Z,75.60
2022-10-21T21:29:08.464Z,75.62
2022-10-21T21:31:37.789Z,75.95
2022-10-21T21:34:06.146Z,75.52
2022-10-21T21:36:33.114Z,74.98
2022-10-21T21:38:59.658Z,74.92
2022-10-21T21:41:26.592Z,75.50
2022-10-21T21:43:55.231Z,75.66
2022-10-21T21:46:24.010Z,75.98
2022-10-21T21:49:04.735Z,75.79
2022-10-21T21:51:35.911Z,76.50
2022-10-21T21:54:04.648Z,76.41
2022-10-21T21:56:31.225Z,75.89
2022-10-21T21:58:58.083Z,75.59
2022-10-21T22:01:28.196Z,75.42
2022-10-21T22:03:55.847Z,75.00
2022-10-21T22:08:53.545Z,75.23
2022-10-21T22:11:24.903Z,74.99
2022-10-21T22:13:51.753Z,75.02
2022-10-21T22:16:19.775Z,74.74
2022-10-21T22:18:46.236Z,74.09
2022-10-21T22:21:16.987Z,74.00
2022-10-21T22:23:45.037Z,73.95
2022-10-21T22:26:13.343Z,73.92
2022-10-21T22:28:40.226Z,73.86
2022-10-21T22:31:16.181Z,73.62
2022-10-21T22:36:16.473Z,74.35
2022-10-21T22:38:44.072Z,74.89
2022-10-21T22:41:12.684Z,75.42
2022-10-21T22:43:39.478Z,75.56
2022-10-21T22:46:21.577Z,75.80
2022-10-21T22:48:48.459Z,75.58
2022-10-21T22:51:14.906Z,75.79
2022-10-21T22:53:41.687Z,75.75
2022-10-21T22:56:08.164Z,75.28
2022-10-21T22:58:34.609Z,75.41
2022-10-21T23:01:07.895Z,75.24
2022-10-21T23:03:34.728Z,75.45
2022-10-21T23:06:01.318Z,75.17
2022-10-21T23:08:28.057Z,74.85
2022-10-21T23:10:54.598Z,74.34
2022-10-21T23:13:21.037Z,74.32
2022-10-21T23:15:48.204Z,74.95
2022-10-21T23:18:15.259Z,75.07
2022-10-21T23:20:42.505Z,75.50
2022-10-21T23:23:09.995Z,75.42
2022-10-21T23:25:36.481Z,74.86
2022-10-21T23:28:03.763Z,74.91
2022-10-21T23:30:31.751Z,75.12
2022-10-21T23:32:58.194Z,74.69
2022-10-21T23:35:26.943Z,74.68
2022-10-21T23:37:53.522Z,74.75
2022-10-21T23:40:20.003Z,74.49
2022-10-21T23:42:46.459Z,74.55
2022-10-21T23:45:12.935Z,74.55
2022-10-21T23:47:40.023Z,74.60
2022-10-21T23:50:08.690Z,75.25
2022-10-21T23:52:36.271Z,75.25
2022-10-21T23:55:04.748Z,75.32
2022-10-21T23:57:31.359Z,75.39
2022-10-21T23:59:57.839Z,75.18
